createdAt,value
2022-11-24T00:04:17.644Z,2.50
2022-11-24T00:10:22.377Z,2.50
2022-11-24T00:16:27.040Z,2.17
2022-11-24T00:22:30.449Z,1.75
2022-11-24T00:28:35.781Z,2.50
2022-11-24T00:34:39.483Z,3.03
2022-11-24T00:40:43.035Z,3.08
2022-11-24T00:46:47.914Z,2.40
2022-11-24T00:52:51.417Z,3.63
2022-11-24T00:58:54.874Z,2.90
2022-11-24T01:04:59.609Z,2.47
2022-11-24T01:11:09.995Z,2.67
2022-11-24T01:17:13.642Z,1.60
2022-11-24T01:23:18.570Z,1.33
2022-11-24T01:29:22.199Z,1.20
2022-11-24T01:35:25.562Z,1.27
2022-11-24T01:41:30.792Z,0.82
2022-11-24T01:47:36.399Z,0.52
2022-11-24T01:53:41.939Z,0.63
2022-11-24T01:59:48.573Z,0.70
2022-11-24T02:05:53.369Z,0.40
2022-11-24T02:11:57.029Z,0.47
2022-11-24T02:18:02.654Z,0.30
2022-11-24T02:24:11.979Z,0.45
2022-11-24T02:30:16.813Z,0.65
2022-11-24T02:36:20.799Z,0.82
2022-11-24T02:42:24.507Z,0.63
2022-11-24T02:48:29.341Z,0.60
2022-11-24T02:54:33.270Z,0.82
2022-11-24T03:00:36.912Z,0.82
2022-11-24T03:06:42.345Z,0.75
2022-11-24T03:12:46.200Z,0.50
2022-11-24T03:18:49.677Z,0.60
2022-11-24T03:24:55.011Z,0.60
2022-11-24T03:30:58.599Z,0.60
2022-11-24T03:37:01.993Z,0.75
2022-11-24T03:43:06.714Z,0.60
2022-11-24T03:49:10.089Z,0.60
2022-11-24T03:55:13.995Z,0.75
2022-11-24T04:01:18.961Z,0.50
2022-11-24T04:07:22.485Z,0.70
2022-11-24T04:13:27.156Z,0.98
2022-11-24T04:19:31.969Z,0.50
2022-11-24T04:25:35.626Z,0.70
2022-11-24T04:31:39.209Z,0.80
2022-11-24T04:37:44.033Z,0.82
2022-11-24T04:43:47.563Z,0.50
2022-11-24T04:49:51.191Z,1.40
2022-11-24T04:55:55.927Z,1.00
2022-11-24T05:01:59.370Z,0.98
2022-11-24T05:08:02.868Z,0.80
2022-11-24T05:14:07.865Z,1.10
2022-11-24T05:20:11.639Z,1.83
2022-11-24T05:26:15.178Z,1.17
2022-11-24T05:32:20.279Z,1.35
2022-11-24T05:38:23.897Z,1.50
2022-11-24T05:44:27.223Z,0.90
2022-11-24T05:50:32.037Z,1.88
2022-11-24T05:56:35.620Z,1.40
2022-11-24T06:02:39.202Z,1.30
2022-11-24T06:08:44.190Z,1.90
2022-11-24T06:14:47.616Z,1.73
2022-11-24T06:21:09.774Z,1.55
2022-11-24T06:27:15.381Z,1.73
2022-11-24T06:33:19.014Z,2.20
2022-11-24T06:39:22.477Z,1.63
2022-11-24T06:45:27.397Z,1.25
2022-11-24T06:51:30.753Z,1.75
2022-11-24T06:57:35.233Z,1.80
2022-11-24T07:03:39.968Z,1.77
2022-11-24T07:09:43.555Z,2.20
2022-11-24T07:15:46.958Z,1.70
2022-11-24T07:21:51.684Z,1.35
2022-11-24T07:27:57.838Z,1.38
2022-11-24T07:34:01.211Z,1.70
2022-11-24T07:40:06.640Z,1.85
2022-11-24T07:46:11.943Z,1.50
2022-11-24T07:52:15.626Z,2.00
2022-11-24T07:58:21.652Z,1.92
2022-11-24T08:04:25.334Z,1.60
2022-11-24T08:10:28.715Z,2.25
2022-11-24T08:16:33.471Z,2.00
2022-11-24T08:22:37.001Z,2.28
2022-11-24T08:28:40.377Z,1.60
2022-11-24T08:34:45.190Z,1.92
2022-11-24T08:40:48.587Z,1.58
2022-11-24T08:46:52.397Z,1.70
2022-11-24T08:52:57.139Z,2.42
2022-11-24T08:59:01.087Z,2.22
2022-11-24T09:05:07.247Z,2.35
2022-11-24T09:11:22.600Z,2.35
2022-11-24T09:17:25.957Z,2.10
2022-11-24T09:23:29.320Z,2.47
2022-11-24T09:29:34.294Z,2.70
2022-11-24T09:35:39.413Z,2.30
2022-11-24T09:41:57.646Z,2.70
2022-11-24T09:48:05.278Z,2.55
2022-11-24T09:54:12.785Z,2.75
2022-11-24T10:00:16.660Z,1.80
2022-11-24T10:06:24.061Z,2.53
2022-11-24T10:12:36.131Z,2.05
2022-11-24T10:18:44.488Z,1.75
2022-11-24T10:24:59.583Z,2.08
2022-11-24T10:31:15.121Z,2.97
2022-11-24T10:37:22.612Z,1.60
2022-11-24T10:43:29.018Z,2.28
2022-11-24T10:49:34.450Z,2.08
2022-11-24T10:55:56.884Z,2.05
2022-11-24T11:02:02.263Z,1.77
2022-11-24T11:08:13.835Z,1.83
2022-11-24T11:14:31.171Z,1.85
2022-11-24T11:20:36.736Z,1.90
2022-11-24T11:26:41.607Z,1.73
2022-11-24T11:39:29.066Z,3.67
2022-11-24T11:45:35.590Z,2.70
2022-11-24T11:51:47.449Z,2.88
2022-11-24T11:57:58.695Z,1.83
2022-11-24T12:04:06.407Z,2.00
2022-11-24T12:10:17.268Z,2.25
2022-11-24T12:16:36.290Z,2.00
2022-11-24T12:22:44.750Z,2.47
2022-11-24T12:28:54.066Z,1.92
2022-11-24T12:35:02.035Z,2.33
2022-11-24T12:41:43.230Z,2.10
2022-11-24T12:47:40.137Z,2.38
2022-11-24T12:53:45.216Z,2.30
2022-11-24T12:59:52.210Z,2.28
2022-11-24T13:05:59.791Z,2.10
2022-11-24T13:12:13.746Z,2.78
2022-11-24T13:18:31.983Z,2.35
2022-11-24T13:24:37.018Z,1.83
2022-11-24T13:30:55.645Z,2.05
2022-11-24T13:37:26.842Z,2.95
2022-11-24T13:43:24.723Z,2.10
2022-11-24T13:49:39.004Z,2.65
2022-11-24T13:55:54.674Z,3.83
2022-11-24T14:01:58.476Z,3.05
2022-11-24T14:08:02.066Z,3.10
2022-11-24T14:14:17.704Z,2.38
2022-11-24T14:20:25.374Z,3.67
2022-11-24T14:26:31.675Z,5.13
2022-11-24T14:32:37.744Z,11.23
2022-11-24T14:38:41.141Z,3.40
2022-11-24T14:44:47.364Z,3.55
2022-11-24T14:50:52.136Z,2.45
2022-11-24T14:57:00.189Z,2.38
2022-11-24T15:03:16.102Z,3.15
2022-11-24T15:09:24.096Z,2.70
2022-11-24T15:15:32.362Z,2.67
2022-11-24T15:21:36.668Z,2.65
2022-11-24T15:27:41.376Z,3.10
2022-11-24T15:33:44.769Z,3.13
2022-11-24T15:39:48.186Z,3.08
2022-11-24T15:45:53.006Z,2.83
2022-11-24T15:51:56.908Z,3.00
2022-11-24T15:58:00.331Z,4.28
2022-11-24T16:04:05.250Z,4.22
2022-11-24T16:10:10.720Z,3.08
2022-11-24T16:16:14.832Z,3.00
2022-11-24T16:22:19.631Z,2.78
2022-11-24T16:28:23.916Z,3.10
2022-11-24T16:34:27.444Z,4.47
2022-11-24T16:40:32.209Z,3.05
2022-11-24T16:46:35.823Z,2.75
2022-11-24T16:52:39.448Z,4.60
2022-11-24T16:58:45.258Z,16.73
2022-11-24T17:04:52.176Z,13.93
2022-11-24T17:10:55.627Z,5.15
2022-11-24T17:17:00.431Z,4.32
2022-11-24T17:23:04.344Z,3.05
2022-11-24T17:29:08.416Z,2.75
2022-11-24T17:35:13.299Z,3.30
2022-11-24T17:41:16.724Z,3.30
2022-11-24T17:47:20.067Z,3.20
2022-11-24T17:53:24.900Z,3.55
2022-11-24T17:59:28.334Z,4.30
2022-11-24T18:05:32.031Z,3.50
2022-11-24T18:11:36.947Z,3.35
2022-11-24T18:17:40.844Z,4.43
2022-11-24T18:23:45.035Z,4.63
2022-11-24T18:29:54.848Z,4.85
2022-11-24T18:36:00.167Z,6.60
2022-11-24T18:42:04.791Z,5.25
2022-11-24T18:48:10.190Z,4.72
2022-11-24T18:54:13.519Z,4.13
2022-11-24T19:00:17.577Z,2.95
2022-11-24T19:06:23.969Z,3.75
2022-11-24T19:12:27.515Z,3.38
2022-11-24T19:18:31.086Z,2.70
2022-11-24T19:24:41.615Z,4.00
2022-11-24T19:30:45.461Z,2.40
2022-11-24T19:36:48.877Z,2.42
2022-11-24T19:42:53.644Z,2.85
2022-11-24T19:48:58.053Z,3.35
2022-11-24T19:55:02.162Z,2.45
2022-11-24T20:01:10.150Z,2.22
2022-11-24T20:07:13.600Z,3.45
2022-11-24T20:13:16.954Z,2.63
2022-11-24T20:19:22.041Z,1.83
2022-11-24T20:25:25.497Z,2.70
2022-11-24T20:31:30.157Z,3.25
2022-11-24T20:37:35.176Z,2.67
2022-11-24T20:43:38.930Z,3.90
2022-11-24T20:49:42.356Z,3.95
2022-11-24T20:55:47.126Z,3.30
2022-11-24T21:01:51.017Z,3.22
2022-11-24T21:07:54.531Z,2.92
2022-11-24T21:13:59.716Z,4.35
2022-11-24T21:20:03.165Z,3.92
2022-11-24T21:26:13.117Z,6.38
2022-11-24T21:32:19.740Z,5.65
2022-11-24T21:38:23.123Z,6.88
2022-11-24T21:44:26.475Z,5.25
2022-11-24T21:50:31.286Z,3.30
2022-11-24T21:56:34.699Z,4.25
2022-11-24T22:02:38.447Z,2.78
2022-11-24T22:08:43.256Z,3.28
2022-11-24T22:14:46.744Z,3.33
2022-11-24T22:20:56.141Z,1.90
2022-11-24T22:27:02.848Z,2.83
2022-11-24T22:33:06.389Z,2.10
2022-11-24T22:39:12.840Z,2.38
2022-11-24T22:45:17.559Z,2.00
2022-11-24T22:51:21.498Z,2.80
2022-11-24T22:57:25.051Z,2.40
2022-11-24T23:03:29.879Z,3.00
2022-11-24T23:09:33.908Z,1.58
2022-11-24T23:15:37.323Z,1.70
2022-11-24T23:21:42.245Z,1.67
2022-11-24T23:27:45.622Z,1.40
2022-11-24T23:33:49.235Z,1.00
2022-11-24T23:39:53.929Z,0.75
2022-11-24T23:45:57.523Z,1.23
2022-11-24T23:52:00.982Z,0.75
2022-11-24T23:58:07.288Z,0.70
